createdAt,value
2023-03-29T00:09:06.192Z,406
2023-03-29T00:29:06.130Z,407
2023-03-29T00:49:06.165Z,404
2023-03-29T01:09:06.188Z,405
2023-03-29T01:29:06.233Z,405
2023-03-29T01:49:06.239Z,401
2023-03-29T02:29:06.298Z,400
2023-03-29T02:49:06.342Z,400
2023-03-29T03:09:06.390Z,401
2023-03-29T03:29:06.380Z,399
2023-03-29T03:49:06.421Z,401
2023-03-29T04:09:06.451Z,397
2023-03-29T04:29:07.719Z,400
2023-03-29T04:49:06.508Z,397
2023-03-29T05:09:06.566Z,394
2023-03-29T05:29:06.578Z,389
2023-03-29T05:49:06.596Z,388
2023-03-29T06:09:06.600Z,394
2023-03-29T06:29:06.650Z,390
2023-03-29T06:49:06.706Z,389
2023-03-29T07:09:06.712Z,391
2023-03-29T07:29:06.709Z,394
2023-03-29T07:49:06.752Z,390
2023-03-29T08:09:06.758Z,394
2023-03-29T08:29:06.817Z,387
2023-03-29T08:49:06.853Z,388
2023-03-29T09:09:06.858Z,385
2023-03-29T09:29:08.368Z,384
2023-03-29T09:49:06.916Z,386
2023-03-29T10:09:06.917Z,382
2023-03-29T10:29:06.947Z,382
2023-03-29T10:49:06.959Z,383
2023-03-29T11:09:06.993Z,382
2023-03-29T11:29:07.041Z,379
2023-03-29T11:49:07.046Z,382
2023-03-29T12:09:07.075Z,375
2023-03-29T12:29:07.078Z,370
2023-03-29T12:49:07.103Z,372
2023-03-29T13:09:07.111Z,370
2023-03-29T13:29:07.132Z,372
2023-03-29T13:49:07.145Z,372
2023-03-29T14:09:07.162Z,373
2023-03-29T14:29:07.206Z,367
2023-03-29T14:49:07.225Z,369
2023-03-29T15:09:07.303Z,374
2023-03-29T15:29:07.221Z,371
2023-03-29T15:49:07.255Z,373
2023-03-29T16:09:07.263Z,367
2023-03-29T16:29:07.267Z,367
2023-03-29T16:49:07.288Z,371
2023-03-29T17:09:07.340Z,371
2023-03-29T17:29:07.401Z,369
2023-03-29T17:49:07.359Z,373
2023-03-29T18:09:07.355Z,366
2023-03-29T18:29:09.261Z,370
2023-03-29T18:49:07.391Z,367
2023-03-29T19:09:07.423Z,372
2023-03-29T19:29:07.434Z,370
2023-03-29T19:49:07.454Z,370
2023-03-29T20:09:07.446Z,366
2023-03-29T20:29:07.492Z,364
2023-03-29T21:09:07.600Z,364
2023-03-29T21:29:07.591Z,368
2023-03-29T21:49:07.636Z,368
2023-03-29T22:09:07.613Z,361
2023-03-29T22:29:07.637Z,367
2023-03-29T22:49:07.638Z,363
2023-03-29T23:09:07.719Z,365
2023-03-29T23:29:07.699Z,370
2023-03-29T23:49:07.676Z,368
